Aeroporto :
LOGIN :

Iscrizione | Disclaimer

   EN    FR    IT 

 










Sommario :    VFR   VFR Marginale   IFR   IFR Intensivo   IFR Molto Intensivo
Visibilità : 
Base nubi : 
>= 8 km
>= 3000ft
5 / 8 km
1000 / 3000 ft
1500m / 5 km
500 / 1000 ft
800 / 1500m
200 / 500 ft
< 800m
< 200 ft
Simboli :   Temporali  Nebbia  Neve Forte  Precipitazioni Forti  Vento > 20 kt
SIGMETs :   Varie  Temporali  Ghiacco  Turbolenza  Onda orograficha  Ceneri Vulcaniche







- Altitudine del aeroporto : 525 ft
- Codice IATA : VAF
- Carte del aeroporto


LFLU - Valence

ULTIMO METAR :
  • 230930Z AUTO 36014KT CAVOK 26/15 Q1015

METARs OBSOLETI :
  • 230900Z AUTO 36013KT 340V040 CAVOK 26/14 Q1015
  • 230830Z AUTO 01013KT CAVOK 25/14 Q1015
  • 230800Z AUTO 01014KT CAVOK 24/14 Q1015
  • 230730Z AUTO 01015KT CAVOK 24/14 Q1015
  • 230700Z AUTO 01012KT 340V040 CAVOK 23/14 Q1015

TAF N/A
Nessun NOTAM noto per questo aeroporto.



MetMap, La meteo Aeronautica in un colpo d'occhio ! - Copyright ORBIFLY Dicembre 2007 - Disclaimer

ORBIFLY MET'MAP TEAM :

Programmazione e sviluppo : Alexandra Zaïnal
Concezione e sviluppo : Baudouin d'Aumeries
Co-Programmazione e sviluppo : Marc-Olivier Méhu
Supporto tecnico e logistico : Manuel Goepfert
Aiuto per la traduzione : Arnaldo La Scala

Contatto : metmap@orbifly.com




FONTI E CREDITI :

   NOAA